WetterOnline ( http://www.wetteronline.de )

Wetter aktuell Bretzfeld

Aktuelles Wetter: Öhringen (277m)

6-stündlich | Neueste Meldungen
Ortszeit Temperatur Wetter
Fr, 27.04. 2:00 5.2° C wolkig
Do, 26.04. 20:00 12.7° C wolkig
Do, 26.04. 14:00 12.6° C leicht bewölkt
Do, 26.04. 8:00 10.6° C fast wolkenlos
Do, 26.04. 2:00 10.5° C Regen
Mi, 25.04. 20:00 16.3° C wolkig
Mi, 25.04. 14:00 20.1° C fast wolkenlos
Mi, 25.04. 8:00 14.4° C bewölkt
Ortszeit Temperatur Wetter
Fr, 27.04. 2:30 5.3° C bewölkt
Fr, 27.04. 2:20 5.3° C bewölkt
Fr, 27.04. 2:10 5.3° C wolkig
Fr, 27.04. 2:00 5.2° C wolkig
Fr, 27.04. 1:40 5.3° C leicht bewölkt
Fr, 27.04. 1:30 5.5° C wolkenlos
Fr, 27.04. 1:00 5.7° C wolkenlos
Fr, 27.04. 0:30 6.0° C wolkenlos
Fr, 27.04. 0:00 6.6° C wolkenlos
Do, 26.04. 23:30 7.0° C wolkenlos
Ortszeit Relative Feuchte Sichtweite
Fr, 27.04. 2:00 80% 55 km
Do, 26.04. 20:00 44% 60 km
Do, 26.04. 14:00 43% 50 km
Do, 26.04. 8:00 75% 30 km
Do, 26.04. 2:00 90% 30 km
Mi, 25.04. 20:00 60% 70 km
Mi, 25.04. 14:00 45% 30 km
Mi, 25.04. 8:00 75% 27 km
Ortszeit Relative Feuchte Sichtweite
Fr, 27.04. 2:30 82% 50 km
Fr, 27.04. 2:20 82% -
Fr, 27.04. 2:10 82% -
Fr, 27.04. 2:00 80% 55 km
Fr, 27.04. 1:40 79% -
Fr, 27.04. 1:30 77% 65 km
Fr, 27.04. 1:00 76% 65 km
Fr, 27.04. 0:30 75% 60 km
Fr, 27.04. 0:00 72% 60 km
Do, 26.04. 23:30 71% 60 km
Ortszeit Niederschlagsmenge Niederschlagsart
Fr, 27.04. 2:00 0.0 l/m2 in 6 Std. -
Do, 26.04. 20:00 0.1 l/m2 in 12 Std. -
Do, 26.04. 14:00 0.1 l/m2 in 6 Std. Sprühregen
Do, 26.04. 8:00 0.4 l/m2 in 12 Std. Regen
Do, 26.04. 2:00 0.4 l/m2 in 6 Std. Regen
Mi, 25.04. 20:00 0.1 l/m2 in 12 Std. Sprühregen
Mi, 25.04. 14:00 0.0 l/m2 in 6 Std. -
Mi, 25.04. 8:00 0.0 l/m2 in 12 Std. -
Ortszeit Niederschlagsmenge Niederschlagsart
Fr, 27.04. 2:30 0.0 l/m2 in 1 Std. -
Fr, 27.04. 2:20 keine Meldung -
Fr, 27.04. 2:10 keine Meldung -
Fr, 27.04. 2:00 0.0 l/m2 in 1 Std. -
Fr, 27.04. 1:40 keine Meldung -
Fr, 27.04. 1:30 0.0 l/m2 in 1 Std. -
Fr, 27.04. 1:00 0.0 l/m2 in 1 Std. -
Fr, 27.04. 0:30 0.0 l/m2 in 1 Std. -
Fr, 27.04. 0:00 0.0 l/m2 in 1 Std. -
Do, 26.04. 23:30 0.0 l/m2 in 1 Std. -
Ortszeit Stärke Spitze Richtung
km/h Bft. km/h Grad Sektor
Fr, 27.04. 2:00 6 1 20 140° SO
Do, 26.04. 20:00 11 2 47 280° W
Do, 26.04. 14:00 30 5 57 280° W
Do, 26.04. 8:00 18 3 36 270° W
Do, 26.04. 2:00 11 2 40 240° SW
Mi, 25.04. 20:00 19 3 59 260° W
Mi, 25.04. 14:00 36 5 58 260° W
Mi, 25.04. 8:00 6 1 13 220° SW
Ortszeit Stärke Spitze Richtung
km/h Bft. km/h Grad Sektor
Fr, 27.04. 2:30 4 1 4 130° SO
Fr, 27.04. 2:20 4 1 - 130° SO
Fr, 27.04. 2:10 4 1 - 120° SO
Fr, 27.04. 2:00 6 1 9 140° SO
Fr, 27.04. 1:40 4 1 - 130° SO
Fr, 27.04. 1:30 7 2 11 140° SO
Fr, 27.04. 1:00 7 2 11 140° SO
Fr, 27.04. 0:30 7 2 11 150° SO
Fr, 27.04. 0:00 7 2 11 140° SO
Do, 26.04. 23:30 6 1 9 140° SO
Ortszeit Untergrenze Bedeckung Gattung
total tief tief mittel hoch
Fr, 27.04. 2:00 8400 m 7/8 0/8 - - -
Do, 26.04. 20:00 2400 m 5/8 5/8 - - -
Do, 26.04. 14:00 1500 m 2/8 3/8 - - -
Do, 26.04. 8:00 1380 m 1/8 1/8 - - -
Do, 26.04. 2:00 1800 m 7/8 7/8 - - -
Mi, 25.04. 20:00 2100 m 5/8 7/8 - - -
Mi, 25.04. 14:00 2400 m 1/8 1/8 - - -
Mi, 25.04. 8:00 1290 m 7/8 7/8 - - -
Ortszeit Bedeckungsgrad in Achtel und Wolkenuntergrenze
Fr, 27.04. 2:30 6(5700m) 7(8700m)
Fr, 27.04. 2:20 6(5700m) 7(8700m)
Fr, 27.04. 2:10 4(5700m) 7(8400m)
Fr, 27.04. 2:00 7(8400m)
Fr, 27.04. 1:40 5(8700m)
Fr, 27.04. 1:30 1(8700m)
Fr, 27.04. 1:00 keine Wolken
Fr, 27.04. 0:30 keine Wolken
Fr, 27.04. 0:00 keine Wolken
Do, 26.04. 23:30 keine Wolken
Ortszeit Luftdruck NN (hPa) Tendenz (hPa in 3 Std.)
Fr, 27.04. 2:00 1020 - 0,6
Do, 26.04. 20:00 1019 - 0,1
Do, 26.04. 14:00 1019 0,0
Do, 26.04. 8:00 1018 + 1,5
Do, 26.04. 2:00 1016 + 0,6
Mi, 25.04. 20:00 1013 - 0,4
Mi, 25.04. 14:00 1012 - 0,3
Mi, 25.04. 8:00 1013 0,0
Ortszeit Luftdruck NN (hPa) Tendenz (hPa in 3 Std.)
Fr, 27.04. 2:30 1020 - 0,6
Fr, 27.04. 2:20 1020 keine Meldung
Fr, 27.04. 2:10 1020 keine Meldung
Fr, 27.04. 2:00 1020 - 0,6
Fr, 27.04. 1:40 1020 keine Meldung
Fr, 27.04. 1:30 1020 - 0,7
Fr, 27.04. 1:00 1020 - 0,4
Fr, 27.04. 0:30 1020 0,0
Fr, 27.04. 0:00 1020 + 0,4
Do, 26.04. 23:30 1020 + 0,6
Ortszeit Schneehöhe (cm)
Fr, 27.04. 2:00 0
Do, 26.04. 20:00 0
Do, 26.04. 14:00 0
Do, 26.04. 8:00 0
Do, 26.04. 2:00 0
Mi, 25.04. 20:00 0
Mi, 25.04. 14:00 0
Mi, 25.04. 8:00 0
Ortszeit Schneehöhe (cm)
Fr, 27.04. 2:30 0
Fr, 27.04. 2:20 0
Fr, 27.04. 2:10 0
Fr, 27.04. 2:00 0
Fr, 27.04. 1:40 0
Fr, 27.04. 1:30 0
Fr, 27.04. 1:00 0
Fr, 27.04. 0:30 0
Fr, 27.04. 0:00 0
Do, 26.04. 23:30 0
Link zu dieser Seite / Seite empfehlen

Das Wetter in ...